Time;durP1;ratioP1;P1;durP2;ratioP2;P2;SDS_P1;SDS_P2;PMS_P1;PMS_P2;Temp;Humidity;BMP_temperature;BMP_pressure;BME280_temperature;BME280_humidity;BME280_pressure;Samples;Min_cycle;Max_cycle;Signal;HPM_P1;HPM_P2
2022/05/10 00:00:29;;;;;;;0.88;0.30;;;13.10;99.90;;;;;;5042030;28;20022;-65
2022/05/10 00:02:57;;;;;;;0.50;0.30;;;13.10;99.90;;;;;;5044822;28;20064;-65
2022/05/10 00:05:36;;;;;;;0.52;0.30;;;13.00;99.90;;;;;;5040170;28;20021;-65
2022/05/10 00:08:05;;;;;;;0.50;0.30;;;12.90;99.90;;;;;;5044189;28;20018;-65
2022/05/10 00:10:30;;;;;;;0.60;0.30;;;12.90;99.90;;;;;;5053649;28;20122;-65
2022/05/10 00:12:56;;;;;;;0.20;0.20;;;12.80;99.90;;;;;;5047655;28;20017;-66
2022/05/10 00:15:22;;;;;;;0.52;0.20;;;12.80;99.90;;;;;;5045764;28;21647;-65
2022/05/10 00:17:48;;;;;;;0.10;0.10;;;12.70;99.90;;;;;;5042494;28;20048;-65
2022/05/10 00:20:17;;;;;;;0.28;0.20;;;12.70;99.90;;;;;;5047853;28;20053;-64
2022/05/10 00:22:44;;;;;;;0.20;0.20;;;12.60;99.90;;;;;;5046761;28;20055;-65
2022/05/10 00:25:11;;;;;;;0.70;0.30;;;12.60;99.90;;;;;;5052558;28;20059;-65
2022/05/10 00:27:37;;;;;;;0.28;0.20;;;12.60;99.90;;;;;;5048474;28;20017;-65
2022/05/10 00:30:04;;;;;;;0.38;0.22;;;12.60;99.90;;;;;;5044949;28;20089;-65
2022/05/10 00:32:33;;;;;;;0.28;0.20;;;12.50;99.90;;;;;;5055901;28;20116;-65
2022/05/10 00:34:58;;;;;;;0.38;0.20;;;12.60;99.90;;;;;;5049014;28;20119;-65
2022/05/10 00:37:24;;;;;;;0.20;0.20;;;12.50;99.90;;;;;;5053307;28;20111;-65
2022/05/10 00:39:50;;;;;;;0.90;0.30;;;12.50;99.90;;;;;;5044987;28;20033;-66
2022/05/10 00:42:41;;;;;;;0.65;0.30;;;12.60;99.90;;;;;;5047069;28;20028;-65
2022/05/10 00:45:16;;;;;;;0.68;0.30;;;12.60;99.90;;;;;;5056459;28;20037;-65
2022/05/10 00:48:18;;;;;;;0.60;0.30;;;12.60;99.90;;;;;;5047637;28;20036;-65
2022/05/10 00:50:52;;;;;;;0.57;0.57;;;12.60;99.90;;;;;;5050779;28;20350;-65
2022/05/10 00:53:30;;;;;;;0.30;0.20;;;12.60;99.90;;;;;;5053006;28;20153;-64
2022/05/10 00:56:17;;;;;;;0.57;0.30;;;12.60;99.90;;;;;;5043732;28;20288;-65
2022/05/10 00:58:57;;;;;;;0.60;0.20;;;12.50;99.90;;;;;;5045491;28;20035;-65
2022/05/10 01:01:31;;;;;;;0.55;0.30;;;12.60;99.90;;;;;;5054451;28;20108;-66
2022/05/10 01:04:27;;;;;;;0.20;0.20;;;12.60;99.90;;;;;;5050277;28;20040;-64
2022/05/10 01:07:06;;;;;;;0.63;0.30;;;12.60;99.90;;;;;;5046289;28;20067;-65
2022/05/10 01:09:39;;;;;;;0.88;0.40;;;12.60;99.90;;;;;;5044790;28;20029;-65
2022/05/10 01:12:12;;;;;;;0.35;0.25;;;12.60;99.90;;;;;;5046144;28;20033;-65
2022/05/10 01:15:00;;;;;;;0.60;0.30;;;12.50;99.90;;;;;;5052747;28;20195;-65
2022/05/10 01:17:26;;;;;;;0.38;0.20;;;12.50;99.90;;;;;;5044892;28;20029;-65
2022/05/10 01:19:51;;;;;;;0.88;0.30;;;12.50;99.90;;;;;;5055985;28;20045;-65
2022/05/10 01:22:45;;;;;;;0.63;0.30;;;12.40;99.90;;;;;;5050009;28;20472;-65
2022/05/10 01:25:13;;;;;;;0.70;0.30;;;12.40;99.90;;;;;;5051319;28;20427;-64
2022/05/10 01:28:03;;;;;;;0.95;0.30;;;12.40;99.90;;;;;;5043951;28;20052;-64
2022/05/10 01:30:31;;;;;;;0.52;0.28;;;12.30;99.90;;;;;;5046790;28;20038;-64
2022/05/10 01:36:06;;;;;;;0.20;0.20;;;12.30;99.90;;;;;;5052362;28;20132;-64
2022/05/10 01:39:09;;;;;;;0.82;0.30;;;12.20;99.90;;;;;;5047566;28;20025;-64
2022/05/10 01:41:57;;;;;;;0.40;0.20;;;12.20;99.90;;;;;;5045444;28;20603;-64
2022/05/10 01:44:45;;;;;;;0.43;0.20;;;12.20;99.90;;;;;;5040213;28;20108;-64
2022/05/10 01:47:20;;;;;;;0.55;0.25;;;12.20;99.90;;;;;;5048724;28;20083;-64
2022/05/10 01:50:10;;;;;;;0.20;0.20;;;12.20;99.90;;;;;;5053618;28;20032;-64
2022/05/10 01:53:14;;;;;;;0.80;0.30;;;12.20;99.90;;;;;;5040428;28;20049;-64
2022/05/10 01:55:50;;;;;;;0.40;0.22;;;12.20;99.90;;;;;;5038443;28;20538;-64
2022/05/10 01:58:20;;;;;;;0.80;0.30;;;12.20;99.90;;;;;;5048149;28;20082;-65
2022/05/10 02:00:55;;;;;;;0.20;0.20;;;12.20;99.90;;;;;;5042895;28;20024;-65
2022/05/10 02:03:30;;;;;;;0.20;0.20;;;12.30;99.90;;;;;;5048877;28;20023;-65
2022/05/10 02:06:04;;;;;;;0.40;0.20;;;12.30;99.90;;;;;;5048898;28;20079;-65
2022/05/10 02:08:37;;;;;;;0.52;0.30;;;12.30;99.90;;;;;;5045391;28;20032;-65
2022/05/10 02:11:10;;;;;;;0.32;0.20;;;12.30;99.90;;;;;;5050551;28;20017;-64
2022/05/10 02:13:50;;;;;;;0.35;0.20;;;12.30;99.90;;;;;;5042389;28;20048;-65
2022/05/10 02:16:23;;;;;;;0.40;0.20;;;12.30;99.90;;;;;;5049872;28;20596;-65
2022/05/10 02:19:27;;;;;;;0.73;0.30;;;12.30;99.90;;;;;;5044367;28;20043;-65
2022/05/10 02:22:03;;;;;;;0.75;0.30;;;12.30;99.90;;;;;;5047586;28;20045;-65
2022/05/10 02:24:43;;;;;;;0.20;0.20;;;12.30;99.90;;;;;;5068213;28;20052;-65
2022/05/10 02:27:32;;;;;;;0.70;0.30;;;12.30;99.90;;;;;;5049722;28;20025;-65
2022/05/10 02:30:02;;;;;;;0.93;0.30;;;12.30;99.90;;;;;;5048034;28;20025;-65
2022/05/10 02:35:19;;;;;;;0.50;0.22;;;12.30;99.90;;;;;;5052769;28;20048;-65
2022/05/10 02:37:44;;;;;;;0.20;0.20;;;12.40;99.90;;;;;;5043042;28;20428;-65
2022/05/10 02:40:11;;;;;;;0.47;0.30;;;12.40;99.90;;;;;;5038195;28;20037;-64
2022/05/10 02:42:37;;;;;;;0.20;0.20;;;12.40;99.90;;;;;;5045907;28;20053;-65
2022/05/10 02:45:05;;;;;;;0.70;0.30;;;12.50;99.90;;;;;;5048592;28;20048;-64
2022/05/10 02:47:37;;;;;;;0.22;0.20;;;12.50;99.90;;;;;;5044373;28;20393;-65
2022/05/10 02:50:04;;;;;;;0.28;0.28;;;12.60;99.90;;;;;;5042660;28;20033;-65
2022/05/10 02:52:30;;;;;;;0.20;0.20;;;12.60;99.90;;;;;;5042734;28;20030;-66
2022/05/10 02:55:00;;;;;;;0.65;0.25;;;12.70;99.90;;;;;;5050155;28;20035;-65
2022/05/10 02:57:26;;;;;;;0.95;0.63;;;12.70;99.90;;;;;;5050845;28;20052;-66
2022/05/10 02:59:57;;;;;;;0.38;0.20;;;12.70;99.90;;;;;;5044105;28;20029;-65
2022/05/10 03:02:28;;;;;;;0.38;0.20;;;12.80;99.90;;;;;;5051153;28;20249;-65
2022/05/10 03:04:56;;;;;;;0.20;0.20;;;12.80;99.90;;;;;;5043414;28;20426;-65
2022/05/10 03:07:23;;;;;;;0.47;0.25;;;12.80;99.90;;;;;;5044381;28;20026;-65
2022/05/10 03:09:49;;;;;;;0.35;0.30;;;12.80;99.90;;;;;;5044991;28;20036;-65
2022/05/10 03:12:15;;;;;;;0.47;0.30;;;12.80;99.90;;;;;;5039162;28;20033;-66
2022/05/10 03:14:41;;;;;;;0.63;0.30;;;12.90;99.90;;;;;;5050850;28;20037;-64
2022/05/10 03:17:10;;;;;;;0.30;0.20;;;12.90;99.90;;;;;;5045701;28;20033;-65
2022/05/10 03:19:37;;;;;;;0.40;0.20;;;12.90;99.90;;;;;;5049461;28;20090;-64
2022/05/10 03:22:03;;;;;;;0.57;0.30;;;12.90;99.90;;;;;;5045774;28;20048;-64
2022/05/10 03:24:30;;;;;;;0.63;0.30;;;12.90;99.90;;;;;;5049151;28;21408;-64
2022/05/10 03:26:58;;;;;;;0.20;0.20;;;12.90;99.90;;;;;;5048531;28;20111;-64
2022/05/10 03:29:25;;;;;;;0.60;0.35;;;12.90;99.90;;;;;;5043172;28;20017;-64
2022/05/10 03:31:54;;;;;;;0.20;0.20;;;12.90;99.90;;;;;;5047448;28;20026;-64
2022/05/10 03:37:04;;;;;;;0.43;0.20;;;12.80;99.90;;;;;;5046295;28;20084;-64
2022/05/10 03:39:30;;;;;;;0.43;0.30;;;12.80;99.90;;;;;;5039010;28;20029;-64
2022/05/10 03:41:56;;;;;;;0.28;0.25;;;12.80;99.90;;;;;;5048712;28;20025;-64
2022/05/10 03:44:21;;;;;;;0.30;0.20;;;12.80;99.90;;;;;;5044958;28;20096;-65
2022/05/10 03:46:47;;;;;;;0.57;0.30;;;12.80;99.90;;;;;;5049779;28;20037;-65
2022/05/10 03:49:14;;;;;;;1.05;0.38;;;12.70;99.90;;;;;;5048237;28;20048;-64
2022/05/10 03:51:39;;;;;;;0.20;0.20;;;12.70;99.90;;;;;;5050337;28;20052;-65
2022/05/10 03:54:06;;;;;;;0.63;0.30;;;12.70;99.90;;;;;;5051835;28;20040;-64
2022/05/10 03:56:31;;;;;;;0.40;0.20;;;12.70;99.90;;;;;;5045646;28;20041;-64
2022/05/10 03:58:57;;;;;;;0.20;0.20;;;12.70;99.90;;;;;;5044106;28;20029;-64
2022/05/10 04:01:23;;;;;;;0.47;0.30;;;12.70;99.90;;;;;;5045672;28;20029;-64
2022/05/10 04:03:49;;;;;;;0.55;0.30;;;12.70;99.90;;;;;;5046040;28;20029;-64
2022/05/10 04:06:15;;;;;;;0.20;0.20;;;12.80;99.90;;;;;;5042444;28;20473;-65
2022/05/10 04:08:40;;;;;;;0.20;0.20;;;12.70;99.90;;;;;;5051066;28;20041;-65
2022/05/10 04:11:10;;;;;;;0.47;0.30;;;12.70;99.90;;;;;;5045202;28;20083;-65
2022/05/10 04:13:37;;;;;;;0.28;0.20;;;12.70;99.90;;;;;;5048229;28;20500;-65
2022/05/10 04:16:03;;;;;;;0.35;0.20;;;12.80;99.90;;;;;;5047160;28;20040;-64
2022/05/10 04:18:29;;;;;;;0.47;0.30;;;12.80;99.90;;;;;;5047481;28;20040;-64
2022/05/10 04:20:55;;;;;;;0.52;0.20;;;12.80;99.90;;;;;;5046069;28;20041;-64
2022/05/10 04:23:21;;;;;;;0.77;0.30;;;12.80;99.90;;;;;;5042644;28;20017;-64
2022/05/10 04:25:47;;;;;;;0.20;0.20;;;12.80;99.90;;;;;;5042379;28;20029;-64
2022/05/10 04:31:35;;;;;;;0.55;0.28;;;12.90;99.90;;;;;;5677280;22;20091;-82
2022/05/10 04:34:00;;;;;;;0.75;0.30;;;12.90;99.90;;;;;;5041628;28;20150;-81
2022/05/10 04:36:26;;;;;;;0.20;0.20;;;12.90;99.90;;;;;;5067138;28;20049;-82
2022/05/10 04:38:52;;;;;;;0.60;0.30;;;13.00;99.90;;;;;;5073041;28;20110;-81
2022/05/10 04:41:26;;;;;;;0.25;0.20;;;13.10;99.90;;;;;;5075181;28;20106;-81
2022/05/10 04:43:54;;;;;;;0.20;0.20;;;13.10;99.90;;;;;;5075539;28;20028;-80
2022/05/10 04:46:20;;;;;;;0.35;0.20;;;13.20;99.90;;;;;;5076567;28;20027;-81
2022/05/10 04:48:46;;;;;;;0.82;0.40;;;13.20;99.90;;;;;;5075220;28;20029;-82
2022/05/10 04:51:12;;;;;;;0.52;0.25;;;13.30;99.90;;;;;;5077300;28;20029;-83
2022/05/10 04:53:37;;;;;;;0.50;0.20;;;13.30;99.90;;;;;;5075930;28;20027;-82
2022/05/10 04:56:04;;;;;;;0.32;0.20;;;13.40;99.90;;;;;;5058801;28;20376;-82
2022/05/10 04:58:30;;;;;;;0.52;0.30;;;13.40;99.90;;;;;;5041956;28;20120;-82
2022/05/10 05:01:02;;;;;;;0.63;0.30;;;13.50;99.90;;;;;;5058122;28;20456;-82
2022/05/10 05:03:30;;;;;;;0.47;0.30;;;13.50;99.90;;;;;;5075747;28;20027;-83
2022/05/10 05:05:56;;;;;;;0.68;0.30;;;13.50;99.90;;;;;;5042644;28;20033;-81
2022/05/10 05:08:21;;;;;;;0.20;0.20;;;13.60;99.90;;;;;;5041636;28;20101;-82
2022/05/10 05:10:47;;;;;;;0.43;0.20;;;13.60;99.90;;;;;;5074792;28;20094;-81
2022/05/10 05:13:14;;;;;;;0.28;0.20;;;13.70;99.90;;;;;;5058414;28;20036;-81
2022/05/10 05:15:40;;;;;;;0.52;0.20;;;13.80;99.90;;;;;;5074922;28;20033;-81
2022/05/10 05:18:08;;;;;;;0.63;0.30;;;13.80;99.90;;;;;;5074638;28;20020;-83
2022/05/10 05:20:34;;;;;;;0.32;0.20;;;13.90;99.90;;;;;;5058368;28;20017;-82
2022/05/10 05:23:01;;;;;;;0.20;0.20;;;14.00;99.90;;;;;;5074794;28;20028;-82
2022/05/10 05:25:27;;;;;;;0.52;0.20;;;14.10;99.90;;;;;;5075482;28;20048;-82
2022/05/10 05:27:53;;;;;;;0.90;0.30;;;14.10;99.90;;;;;;5075462;28;20056;-81
2022/05/10 05:30:19;;;;;;;0.38;0.20;;;14.20;99.90;;;;;;5074662;28;20067;-80
2022/05/10 05:32:45;;;;;;;0.20;0.20;;;14.30;99.90;;;;;;5040747;28;20063;-81
2022/05/10 05:35:12;;;;;;;0.30;0.20;;;14.40;99.90;;;;;;5074248;28;20048;-81
2022/05/10 05:37:37;;;;;;;0.35;0.20;;;14.50;99.90;;;;;;5074851;28;20039;-79
2022/05/10 05:40:08;;;;;;;0.25;0.20;;;14.60;99.90;;;;;;5058264;28;20405;-78
2022/05/10 05:42:35;;;;;;;0.30;0.20;;;14.70;99.90;;;;;;5075458;28;20028;-82
2022/05/10 05:45:01;;;;;;;0.75;0.30;;;14.70;99.90;;;;;;5075414;28;20043;-81
2022/05/10 05:47:27;;;;;;;0.60;0.22;;;14.80;99.90;;;;;;5074246;28;20371;-81
2022/05/10 05:49:53;;;;;;;0.68;0.20;;;14.90;99.90;;;;;;5074384;28;20028;-81
2022/05/10 05:52:21;;;;;;;1.02;0.30;;;15.00;99.90;;;;;;5073248;28;20053;-81
2022/05/10 05:54:51;;;;;;;0.45;0.20;;;15.10;99.90;;;;;;5073760;28;20033;-81
2022/05/10 05:57:16;;;;;;;0.82;0.40;;;15.20;99.90;;;;;;5073264;28;20111;-77
2022/05/10 05:59:42;;;;;;;0.93;0.30;;;15.30;99.90;;;;;;5075258;28;20150;-78
2022/05/10 06:02:17;;;;;;;0.52;0.20;;;15.50;99.90;;;;;;5075241;28;20467;-78
2022/05/10 06:04:43;;;;;;;0.77;0.30;;;15.60;99.90;;;;;;5075080;28;20024;-77
2022/05/10 06:07:13;;;;;;;1.13;0.40;;;15.70;99.90;;;;;;5075254;28;20364;-77
2022/05/10 06:09:40;;;;;;;0.93;0.40;;;15.80;99.90;;;;;;5075560;28;20074;-78
2022/05/10 06:12:08;;;;;;;0.22;0.20;;;16.00;99.90;;;;;;5074965;28;20031;-77
2022/05/10 06:14:34;;;;;;;0.73;0.20;;;16.20;99.90;;;;;;5073612;28;20035;-77
2022/05/10 06:17:01;;;;;;;0.38;0.20;;;16.30;99.90;;;;;;5075608;28;20052;-78
2022/05/10 06:19:28;;;;;;;0.75;0.57;;;16.50;99.90;;;;;;5073949;28;20033;-78
2022/05/10 06:21:55;;;;;;;0.70;0.22;;;16.70;99.90;;;;;;5057688;28;20031;-78
2022/05/10 06:24:25;;;;;;;2.03;0.70;;;16.90;99.90;;;;;;5074018;28;20437;-80
2022/05/10 06:26:50;;;;;;;0.55;0.22;;;17.20;99.90;;;;;;5074323;28;20031;-77
2022/05/10 06:29:17;;;;;;;0.38;0.20;;;17.60;99.90;;;;;;5074255;28;20375;-77
2022/05/10 06:31:43;;;;;;;0.30;0.20;;;17.90;99.90;;;;;;5072276;28;20048;-80
2022/05/10 06:34:10;;;;;;;0.13;0.10;;;18.10;99.90;;;;;;5072592;28;20032;-79
2022/05/10 06:36:37;;;;;;;0.60;0.20;;;18.30;99.90;;;;;;5056147;28;20139;-79
2022/05/10 06:39:03;;;;;;;0.93;0.30;;;18.50;99.90;;;;;;5073961;28;20029;-79
2022/05/10 06:41:31;;;;;;;0.57;0.20;;;18.60;99.90;;;;;;5074138;28;20435;-80
2022/05/10 06:43:57;;;;;;;1.00;0.35;;;18.60;99.90;;;;;;5074011;28;20038;-79
2022/05/10 06:46:26;;;;;;;0.55;0.20;;;18.70;99.90;;;;;;5074742;28;20020;-79
2022/05/10 06:48:52;;;;;;;0.70;0.30;;;18.90;99.90;;;;;;5056335;28;20123;-81
2022/05/10 06:51:21;;;;;;;0.57;0.20;;;19.00;99.90;;;;;;5056318;28;20079;-79
2022/05/10 06:53:48;;;;;;;0.73;0.22;;;19.10;99.90;;;;;;5074021;28;20464;-80
2022/05/10 06:56:13;;;;;;;0.38;0.10;;;19.50;99.90;;;;;;5073687;28;20058;-78
2022/05/10 06:58:39;;;;;;;0.73;0.40;;;20.00;99.90;;;;;;5073673;28;20087;-79
2022/05/10 07:01:10;;;;;;;0.52;0.17;;;20.60;99.90;;;;;;5072440;28;20029;-80
2022/05/10 07:03:36;;;;;;;1.00;0.77;;;20.90;97.70;;;;;;5073765;28;20052;-79
2022/05/10 07:06:05;;;;;;;0.63;0.20;;;21.20;95.30;;;;;;5073844;28;20032;-81
2022/05/10 07:08:31;;;;;;;0.63;0.20;;;21.50;94.00;;;;;;5073749;28;20103;-79
2022/05/10 07:10:57;;;;;;;0.93;0.50;;;21.70;90.70;;;;;;5074164;28;20118;-78
2022/05/10 07:13:26;;;;;;;0.28;0.10;;;22.00;93.20;;;;;;5073875;28;20029;-77
2022/05/10 07:15:52;;;;;;;0.85;0.55;;;22.10;81.20;;;;;;5072093;28;20028;-80
2022/05/10 07:18:19;;;;;;;3.85;0.40;;;22.20;82.70;;;;;;5039673;28;20356;-81
2022/05/10 07:20:46;;;;;;;1.33;0.68;;;22.20;76.10;;;;;;5072223;28;20021;-79
2022/05/10 07:23:13;;;;;;;0.17;0.10;;;22.10;78.40;;;;;;5073440;28;20032;-81
2022/05/10 07:25:39;;;;;;;0.65;0.20;;;21.90;75.40;;;;;;5073280;28;20040;-81
2022/05/10 07:28:06;;;;;;;3.28;0.82;;;21.90;83.30;;;;;;5072843;28;20025;-78
2022/05/10 07:30:33;;;;;;;0.63;0.43;;;22.10;82.80;;;;;;5055551;28;20032;-80
2022/05/10 07:32:59;;;;;;;0.50;0.43;;;22.10;80.40;;;;;;5055322;28;20084;-80
2022/05/10 07:38:16;;;;;;;0.13;0.10;;;22.10;78.10;;;;;;5073876;28;20035;-81
2022/05/10 07:40:43;;;;;;;1.13;0.75;;;22.50;80.70;;;;;;5072693;28;20028;-82
2022/05/10 07:43:10;;;;;;;0.47;0.43;;;22.50;73.40;;;;;;5055521;28;20119;-82
2022/05/10 07:45:36;;;;;;;0.32;0.20;;;22.80;73.80;;;;;;5072409;28;20024;-80
2022/05/10 07:48:03;;;;;;;0.63;0.30;;;23.20;73.10;;;;;;5073241;28;20028;-78
2022/05/10 07:50:29;;;;;;;0.40;0.20;;;23.60;72.20;;;;;;5055463;28;20029;-78
2022/05/10 07:52:54;;;;;;;0.10;0.10;;;23.60;70.60;;;;;;5073521;28;20025;-78
2022/05/10 07:55:20;;;;;;;0.25;0.25;;;23.60;65.90;;;;;;5073367;28;20112;-79
2022/05/10 07:57:45;;;;;;;0.10;0.10;;;23.50;65.00;;;;;;5073434;28;20029;-79
2022/05/10 08:00:13;;;;;;;0.15;0.15;;;23.70;65.00;;;;;;5055397;28;20545;-78
2022/05/10 08:02:43;;;;;;;0.77;0.57;;;23.90;64.20;;;;;;5072036;28;20023;-79
2022/05/10 08:05:18;;;;;;;0.98;0.35;;;24.30;63.00;;;;;;5073496;28;20032;-79
2022/05/10 08:07:44;;;;;;;0.40;0.10;;;24.40;59.80;;;;;;5073964;28;20082;-79
2022/05/10 08:10:10;;;;;;;0.55;0.50;;;24.50;58.40;;;;;;5073139;28;20029;-78
2022/05/10 08:12:36;;;;;;;1.40;0.68;;;24.40;60.10;;;;;;5072436;28;20429;-79
2022/05/10 08:15:02;;;;;;;0.75;0.43;;;24.30;58.00;;;;;;5072548;28;20061;-79
2022/05/10 08:17:28;;;;;;;2.28;0.90;;;24.20;59.10;;;;;;5076937;28;20020;-79
2022/05/10 08:19:54;;;;;;;0.43;0.20;;;24.40;59.40;;;;;;5077093;28;20507;-79
2022/05/10 08:22:19;;;;;;;0.73;0.60;;;24.40;58.70;;;;;;5077267;28;20108;-78
2022/05/10 08:24:45;;;;;;;0.28;0.15;;;23.90;58.60;;;;;;5076586;28;20033;-77
2022/05/10 08:27:11;;;;;;;1.58;0.95;;;23.50;58.90;;;;;;5076636;28;20071;-78
2022/05/10 08:29:37;;;;;;;0.55;0.25;;;23.10;60.30;;;;;;5058770;28;20039;-78
2022/05/10 08:32:03;;;;;;;0.85;0.20;;;23.00;62.90;;;;;;5076980;28;20103;-78
2022/05/10 08:34:29;;;;;;;1.55;0.65;;;22.60;62.90;;;;;;5076209;28;20035;-82
2022/05/10 08:36:56;;;;;;;0.55;0.45;;;22.60;65.80;;;;;;5075860;28;20025;-78
2022/05/10 08:39:22;;;;;;;0.52;0.45;;;22.50;66.70;;;;;;5076659;28;20054;-78
2022/05/10 08:42:04;;;;;;;0.15;0.10;;;22.50;67.30;;;;;;5076533;28;20107;-78
2022/05/10 08:44:35;;;;;;;0.68;0.30;;;22.40;68.70;;;;;;5076699;28;20021;-78
2022/05/10 08:47:06;;;;;;;0.98;0.47;;;22.50;69.90;;;;;;5076633;28;20027;-78
2022/05/10 08:49:40;;;;;;;0.30;0.20;;;22.40;71.20;;;;;;5077256;28;20502;-78
2022/05/10 08:52:06;;;;;;;1.20;1.10;;;22.40;71.90;;;;;;5076571;28;20020;-78
2022/05/10 08:54:36;;;;;;;0.10;0.10;;;22.20;72.90;;;;;;5075449;28;20059;-77
2022/05/10 08:57:40;;;;;;;0.17;0.10;;;22.30;74.40;;;;;;5077078;28;20033;-77
2022/05/10 09:00:11;;;;;;;0.17;0.17;;;22.50;76.40;;;;;;5074650;28;20040;-77
2022/05/10 09:02:37;;;;;;;0.38;0.20;;;22.50;76.20;;;;;;5074958;28;20032;-77
2022/05/10 09:05:25;;;;;;;0.28;0.10;;;22.30;77.20;;;;;;5075046;28;20039;-77
2022/05/10 09:08:11;;;;;;;0.43;0.28;;;22.50;76.40;;;;;;5076100;28;20024;-77
2022/05/10 09:10:39;;;;;;;0.10;0.10;;;22.30;80.70;;;;;;5076344;28;20035;-77
2022/05/10 09:13:10;;;;;;;0.82;0.47;;;22.30;83.00;;;;;;5076365;28;20029;-78
2022/05/10 09:15:40;;;;;;;0.55;0.22;;;22.50;86.00;;;;;;5075765;28;20450;-77
2022/05/10 09:18:27;;;;;;;1.45;0.55;;;22.30;87.50;;;;;;5076125;28;20028;-78
2022/05/10 09:21:16;;;;;;;0.47;0.30;;;22.20;88.40;;;;;;5074679;28;20035;-79
2022/05/10 09:24:05;;;;;;;0.45;0.40;;;22.30;91.00;;;;;;5076131;28;20033;-79
2022/05/10 09:26:36;;;;;;;0.60;0.20;;;22.30;91.30;;;;;;5075573;28;20047;-78
2022/05/10 09:29:17;;;;;;;0.75;0.20;;;22.20;92.60;;;;;;5075424;28;20453;-79
2022/05/10 09:34:47;;;;;;;1.63;0.77;;;22.50;94.00;;;;;;5076098;28;20546;-78
2022/05/10 09:37:17;;;;;;;1.15;0.30;;;22.60;91.70;;;;;;5075657;28;20388;-77
2022/05/10 09:39:55;;;;;;;0.75;0.47;;;22.80;91.60;;;;;;5076935;28;20387;-77
2022/05/10 09:42:33;;;;;;;5.38;0.98;;;22.90;90.60;;;;;;5075322;28;20469;-79
2022/05/10 09:45:14;;;;;;;0.63;0.22;;;23.30;89.80;;;;;;5077692;28;20032;-78
2022/05/10 09:47:52;;;;;;;0.40;0.13;;;23.70;85.60;;;;;;5075922;28;20066;-78
2022/05/10 09:50:21;;;;;;;0.17;0.17;;;24.00;80.80;;;;;;5075295;28;20027;-79
2022/05/10 09:52:48;;;;;;;0.30;0.20;;;24.10;77.70;;;;;;5075285;28;20024;-79
2022/05/10 09:55:27;;;;;;;0.63;0.30;;;24.10;75.20;;;;;;5075220;28;20029;-79
2022/05/10 09:57:54;;;;;;;0.32;0.10;;;24.00;75.70;;;;;;5075322;28;20067;-78
2022/05/10 10:00:38;;;;;;;0.73;0.22;;;24.00;73.90;;;;;;5075256;28;20031;-79
2022/05/10 10:03:04;;;;;;;0.43;0.20;;;23.80;73.30;;;;;;5075509;28;20452;-78
2022/05/10 10:05:32;;;;;;;0.30;0.13;;;24.00;75.70;;;;;;5076592;28;20044;-81
2022/05/10 10:07:58;;;;;;;0.10;0.10;;;24.10;77.30;;;;;;5074832;28;20060;-79
2022/05/10 10:10:34;;;;;;;2.08;0.65;;;24.40;72.90;;;;;;5073520;28;20024;-82
2022/05/10 10:13:33;;;;;;;0.20;0.10;;;24.50;72.20;;;;;;5074884;28;20036;-87
2022/05/10 10:16:00;;;;;;;0.30;0.20;;;24.80;68.50;;;;;;5066575;28;20033;-79
2022/05/10 10:18:47;;;;;;;0.10;0.10;;;25.10;66.40;;;;;;5057419;28;20036;-80
2022/05/10 10:21:24;;;;;;;1.10;0.60;;;25.10;68.40;;;;;;5075433;28;20032;-78
2022/05/10 10:23:57;;;;;;;0.47;0.22;;;25.40;67.50;;;;;;5080225;28;20093;-82
2022/05/10 10:26:48;;;;;;;0.17;0.10;;;24.90;64.90;;;;;;5075168;28;20025;-82
2022/05/10 10:29:17;;;;;;;0.22;0.10;;;25.40;64.10;;;;;;5066576;28;20024;-80
2022/05/10 10:31:48;;;;;;;1.98;1.25;;;25.50;62.70;;;;;;5074916;28;20476;-81
2022/05/10 10:34:26;;;;;;;0.73;0.32;;;25.80;62.10;;;;;;5073881;28;20332;-81
2022/05/10 10:37:13;;;;;;;0.75;0.45;;;25.80;63.10;;;;;;5073368;28;20139;-81
2022/05/10 10:39:49;;;;;;;0.28;0.20;;;25.80;59.50;;;;;;5074876;28;20017;-81
2022/05/10 10:42:29;;;;;;;0.80;0.20;;;25.90;59.80;;;;;;5075289;28;20020;-84
2022/05/10 10:44:58;;;;;;;0.67;0.40;;;25.70;61.30;;;;;;5074633;28;20020;-86
2022/05/10 10:47:50;;;;;;;0.88;0.35;;;25.90;62.60;;;;;;5074420;28;20016;-84
2022/05/10 10:50:29;;;;;;;1.48;0.65;;;25.90;62.70;;;;;;5074799;28;20024;-84
2022/05/10 10:52:57;;;;;;;0.25;0.10;;;26.10;61.70;;;;;;5074773;28;20020;-90
2022/05/10 10:55:38;;;;;;;0.68;0.38;;;25.90;61.00;;;;;;5075450;28;20028;-89
2022/05/10 10:58:21;;;;;;;0.57;0.10;;;25.90;61.10;;;;;;5075919;28;20057;-88
2022/05/10 11:01:03;;;;;;;2.08;0.50;;;25.70;62.20;;;;;;5073413;28;20435;-88
2022/05/10 11:03:48;;;;;;;0.40;0.20;;;25.60;62.20;;;;;;5073076;28;20448;-89
2022/05/10 11:06:25;;;;;;;0.32;0.22;;;25.10;61.30;;;;;;5072922;28;20023;-85
2022/05/10 11:09:09;;;;;;;0.50;0.20;;;24.90;62.40;;;;;;5073600;28;20020;-87
2022/05/10 11:11:51;;;;;;;0.30;0.10;;;24.80;64.60;;;;;;5072728;28;20487;-88
2022/05/10 11:14:20;;;;;;;1.20;0.63;;;24.40;66.30;;;;;;5073695;28;20046;-88
2022/05/10 11:17:13;;;;;;;0.75;0.30;;;24.20;69.30;;;;;;5074098;28;20107;-88
2022/05/10 11:20:18;;;;;;;0.10;0.10;;;24.00;71.20;;;;;;5074283;28;20495;-89
2022/05/10 11:23:10;;;;;;;;;;;;;;;;;;;;;
2022/05/10 11:26:04;;;;;;;;;;;;;;;;;;;;;
2022/05/10 11:28:39;;;;;;;1.35;0.68;;;23.80;86.00;;;;;;5074986;28;20027;-88
2022/05/10 11:31:27;;;;;;;0.52;0.22;;;24.00;79.40;;;;;;5073993;28;20024;-85
2022/05/10 11:34:14;;;;;;;0.55;0.38;;;24.20;75.60;;;;;;5074127;28;20036;-86
2022/05/10 11:36:47;;;;;;;0.52;0.30;;;24.60;74.90;;;;;;5073911;28;20024;-88
2022/05/10 11:39:46;;;;;;;;;;;;;;;;;;;;;
2022/05/10 11:45:55;;;;;;;0.10;0.10;;;26.30;65.10;;;;;;5067755;28;20099;-88
2022/05/10 11:48:24;;;;;;;;;;;26.10;60.10;;;;;;5074639;28;20024;-88
2022/05/10 11:54:25;;;;;;;3.05;1.58;;;26.50;59.20;;;;;;5077938;28;20082;-88
2022/05/10 11:56:56;;;;;;;0.45;0.15;;;26.60;58.80;;;;;;5077047;28;20020;-87
2022/05/10 11:59:41;;;;;;;0.30;0.15;;;26.80;58.40;;;;;;5076573;28;20039;-87
2022/05/10 12:02:33;;;;;;;0.43;0.40;;;26.50;57.30;;;;;;5076318;28;20074;-88
2022/05/10 12:05:27;;;;;;;;;;;;;;;;;;;;;
2022/05/10 12:08:24;;;;;;;0.10;0.10;;;26.40;57.40;;;;;;5077980;28;20035;-85
2022/05/10 12:10:50;;;;;;;0.40;0.38;;;26.40;56.80;;;;;;5076724;28;20020;-83
2022/05/10 12:21:19;;;;;;;0.10;0.00;;;26.30;58.20;;;;;;5076214;28;20024;-83
2022/05/10 12:22:07;;;;;;;0.10;0.10;;;25.90;58.30;;;;;;5076973;28;20032;-81
2022/05/10 12:24:45;;;;;;;0.20;0.13;;;25.60;59.60;;;;;;5075459;28;20049;-80
2022/05/10 12:27:11;;;;;;;0.10;0.10;;;26.10;59.90;;;;;;5076909;28;20016;-81
2022/05/10 12:29:40;;;;;;;0.10;0.10;;;26.20;58.40;;;;;;5076858;28;20116;-82
2022/05/10 12:32:50;;;;;;;0.55;0.20;;;25.90;58.70;;;;;;5076667;28;20448;-81
2022/05/10 12:35:32;;;;;;;1.15;0.45;;;25.50;58.00;;;;;;5071034;28;20045;-81
2022/05/10 12:38:00;;;;;;;0.15;0.15;;;25.10;58.80;;;;;;5075338;28;20115;-81
2022/05/10 12:40:33;;;;;;;0.35;0.25;;;25.40;60.30;;;;;;5075390;28;20020;-82
2022/05/10 12:43:15;;;;;;;1.10;0.63;;;25.80;59.30;;;;;;5076231;28;20017;-81
2022/05/10 12:46:17;;;;;;;1.63;0.45;;;26.40;58.10;;;;;;5076893;28;20105;-82
2022/05/10 12:49:08;;;;;;;0.00;0.00;;;26.80;58.10;;;;;;5075061;28;20028;-83
2022/05/10 12:52:10;;;;;;;0.17;0.10;;;26.70;56.50;;;;;;5077741;28;20020;-78
2022/05/10 12:54:44;;;;;;;0.00;0.00;;;26.70;55.20;;;;;;5081583;28;20032;-79
2022/05/10 12:57:16;;;;;;;0.45;0.20;;;26.60;55.30;;;;;;5081672;28;20466;-81
2022/05/10 12:59:42;;;;;;;0.43;0.30;;;26.30;55.40;;;;;;5080742;28;20403;-81
2022/05/10 13:02:11;;;;;;;0.20;0.20;;;26.00;55.60;;;;;;5079119;28;20021;-82
2022/05/10 13:04:42;;;;;;;0.20;0.20;;;25.20;56.50;;;;;;5078381;28;20029;-81
2022/05/10 13:07:17;;;;;;;1.20;0.63;;;25.20;57.40;;;;;;5083270;28;20032;-81
2022/05/10 13:09:49;;;;;;;0.00;0.00;;;25.00;59.30;;;;;;5084610;28;20032;-82
2022/05/10 13:12:24;;;;;;;0.10;0.10;;;24.80;60.10;;;;;;5081070;28;20471;-82
2022/05/10 13:14:53;;;;;;;0.28;0.10;;;24.70;59.80;;;;;;5079537;28;20135;-81
2022/05/10 13:17:29;;;;;;;0.10;0.10;;;24.60;60.60;;;;;;5079047;28;20021;-81
2022/05/10 13:19:56;;;;;;;0.73;0.52;;;24.40;60.80;;;;;;5079876;28;20067;-82
2022/05/10 13:22:22;;;;;;;0.32;0.10;;;24.20;59.80;;;;;;5079302;28;20044;-81
2022/05/10 13:24:50;;;;;;;0.20;0.13;;;24.10;61.80;;;;;;5075621;28;20388;-82
2022/05/10 13:27:34;;;;;;;0.10;0.10;;;24.30;64.70;;;;;;5076213;28;20036;-81
2022/05/10 13:30:08;;;;;;;0.30;0.20;;;24.10;65.70;;;;;;5075084;28;20419;-83
2022/05/10 13:32:42;;;;;;;0.13;0.10;;;24.20;66.00;;;;;;5075698;28;20128;-81
2022/05/10 13:35:10;;;;;;;0.17;0.10;;;24.10;66.50;;;;;;5076869;28;20095;-81
2022/05/10 13:37:40;;;;;;;0.10;0.10;;;24.20;65.80;;;;;;5082038;28;20040;-82
2022/05/10 13:40:15;;;;;;;0.10;0.10;;;24.20;65.60;;;;;;5078860;28;20488;-81
2022/05/10 13:42:45;;;;;;;0.10;0.10;;;24.60;67.30;;;;;;5079238;28;20028;-82
2022/05/10 13:45:18;;;;;;;0.20;0.10;;;24.70;64.20;;;;;;5078711;28;20107;-81
2022/05/10 13:47:48;;;;;;;0.10;0.10;;;24.60;61.60;;;;;;5077411;28;20028;-87